createdAt,value
2022-10-15T00:01:34.204Z,71.20
2022-10-15T00:06:35.136Z,81.78
2022-10-15T00:09:03.034Z,85.78
2022-10-15T00:11:33.131Z,73.68
2022-10-15T00:14:01.511Z,76.18
2022-10-15T00:16:29.969Z,56.05
2022-10-15T00:18:59.415Z,79.63
2022-10-15T00:21:27.717Z,80.80
2022-10-15T00:23:56.547Z,71.07
2022-10-15T00:26:29.427Z,56.90
2022-10-15T00:29:03.007Z,52.83
2022-10-15T00:31:33.433Z,49.38
2022-10-15T00:34:03.104Z,52.85
2022-10-15T00:36:35.138Z,55.57
2022-10-15T00:39:05.457Z,48.42
2022-10-15T00:41:36.039Z,53.53
2022-10-15T00:44:30.043Z,49.22
2022-10-15T00:47:16.851Z,63.08
2022-10-15T00:50:07.603Z,51.05
2022-10-15T00:52:44.678Z,44.95
2022-10-15T00:55:38.796Z,53.20
2022-10-15T00:58:14.003Z,56.53
2022-10-15T01:00:42.278Z,60.10
2022-10-15T01:03:12.974Z,66.38
2022-10-15T01:05:43.861Z,61.25
2022-10-15T01:08:14.039Z,62.90
2022-10-15T01:11:20.641Z,60.42
2022-10-15T01:14:10.188Z,93.07
2022-10-15T01:17:05.322Z,73.45
2022-10-15T01:19:48.068Z,50.10
2022-10-15T01:22:21.933Z,53.03
2022-10-15T01:24:53.252Z,48.55
2022-10-15T01:27:31.003Z,45.50
2022-10-15T01:29:58.995Z,46.60
2022-10-15T01:32:34.941Z,53.42
2022-10-15T01:35:27.184Z,53.17
2022-10-15T01:38:04.400Z,52.35
2022-10-15T01:40:40.576Z,45.97
2022-10-15T01:43:16.556Z,48.40
2022-10-15T01:46:08.648Z,50.78
2022-10-15T01:48:44.131Z,39.65
2022-10-15T01:51:14.898Z,45.90
2022-10-15T01:53:46.758Z,38.40
2022-10-15T01:56:23.079Z,46.40
2022-10-15T01:58:54.909Z,57.22
2022-10-15T02:01:23.158Z,43.42
2022-10-15T02:03:55.177Z,46.95
2022-10-15T02:06:37.408Z,52.08
2022-10-15T02:09:21.657Z,50.60
2022-10-15T02:11:59.788Z,38.88
2022-10-15T02:14:34.044Z,42.85
2022-10-15T02:17:11.737Z,40.00
2022-10-15T02:19:49.972Z,40.92
2022-10-15T02:22:23.971Z,36.38
2022-10-15T02:24:59.039Z,42.88
2022-10-15T02:27:30.238Z,47.58
2022-10-15T02:30:04.640Z,39.55
2022-10-15T02:32:38.898Z,43.13
2022-10-15T02:35:08.967Z,48.22
2022-10-15T02:37:46.943Z,38.30
2022-10-15T02:40:25.417Z,46.40
2022-10-15T02:42:53.707Z,45.50
2022-10-15T02:45:22.249Z,52.53
2022-10-15T02:47:50.202Z,47.35
2022-10-15T02:50:19.334Z,45.08
2022-10-15T02:52:47.170Z,40.03
2022-10-15T02:55:17.061Z,41.65
2022-10-15T02:57:44.811Z,43.88
2022-10-15T03:00:13.182Z,44.83
2022-10-15T03:02:41.650Z,39.70
2022-10-15T03:05:09.836Z,55.55
2022-10-15T03:07:38.073Z,34.53
2022-10-15T03:10:06.808Z,42.28
2022-10-15T03:12:34.903Z,42.83
2022-10-15T03:15:02.920Z,39.03
2022-10-15T03:17:31.639Z,41.10
2022-10-15T03:20:00.188Z,40.53
2022-10-15T03:22:27.807Z,44.95
2022-10-15T03:24:55.548Z,39.05
2022-10-15T03:27:26.502Z,45.30
2022-10-15T03:29:54.711Z,45.33
2022-10-15T03:32:24.729Z,47.97
2022-10-15T03:34:52.933Z,44.17
2022-10-15T03:37:21.957Z,48.22
2022-10-15T03:39:50.077Z,51.10
2022-10-15T03:42:19.386Z,43.53
2022-10-15T03:44:47.479Z,46.60
2022-10-15T03:47:18.931Z,46.15
2022-10-15T03:49:48.620Z,48.80
2022-10-15T03:52:16.584Z,49.30
2022-10-15T03:54:46.217Z,39.97
2022-10-15T03:57:16.483Z,46.13
2022-10-15T03:59:48.655Z,45.13
2022-10-15T04:02:17.615Z,51.33
2022-10-15T04:04:45.369Z,58.38
2022-10-15T04:07:13.192Z,46.53
2022-10-15T04:09:40.988Z,49.42
2022-10-15T04:12:28.270Z,43.33
2022-10-15T04:14:56.849Z,44.88
2022-10-15T04:17:24.679Z,50.50
2022-10-15T04:19:52.389Z,39.28
2022-10-15T04:22:22.123Z,40.92
2022-10-15T04:24:54.287Z,47.30
2022-10-15T04:27:29.279Z,34.47
2022-10-15T04:30:08.030Z,41.05
2022-10-15T04:32:38.177Z,41.15
2022-10-15T04:35:06.618Z,49.65
2022-10-15T04:38:03.307Z,51.78
2022-10-15T04:40:57.900Z,49.40
2022-10-15T04:43:29.813Z,51.60
2022-10-15T04:46:06.763Z,57.03
2022-10-15T04:48:38.982Z,57.63
2022-10-15T04:51:14.367Z,48.17
2022-10-15T04:54:02.238Z,48.97
2022-10-15T04:56:31.687Z,56.63
2022-10-15T04:58:59.648Z,51.92
2022-10-15T05:01:30.767Z,51.92
2022-10-15T05:04:07.611Z,54.58
2022-10-15T05:06:36.247Z,38.03
2022-10-15T05:09:17.479Z,42.90
2022-10-15T05:11:50.202Z,49.47
2022-10-15T05:14:17.938Z,44.28
2022-10-15T05:16:57.469Z,46.40
2022-10-15T05:19:28.203Z,41.40
2022-10-15T05:21:56.192Z,48.97
2022-10-15T05:24:26.132Z,47.83
2022-10-15T05:27:03.161Z,44.85
2022-10-15T05:29:33.931Z,40.10
2022-10-15T05:32:01.596Z,42.20
2022-10-15T05:34:31.035Z,40.78
2022-10-15T05:37:09.336Z,45.70
2022-10-15T05:39:40.425Z,40.63
2022-10-15T05:42:10.787Z,46.67
2022-10-15T05:44:56.324Z,42.88
2022-10-15T05:47:24.705Z,42.50
2022-10-15T05:50:00.474Z,52.05
2022-10-15T05:52:32.750Z,40.30
2022-10-15T05:55:12.300Z,53.25
2022-10-15T05:57:40.146Z,46.80
2022-10-15T06:00:08.934Z,66.95
2022-10-15T06:02:40.118Z,42.83
2022-10-15T06:05:08.908Z,46.10
2022-10-15T06:07:37.064Z,41.28
2022-10-15T06:10:06.634Z,41.53
2022-10-15T06:12:39.326Z,38.72
2022-10-15T06:15:07.777Z,36.88
2022-10-15T06:17:35.778Z,47.65
2022-10-15T06:20:03.698Z,43.42
2022-10-15T06:22:32.038Z,42.78
2022-10-15T06:25:01.400Z,37.95
2022-10-15T06:27:31.103Z,37.90
2022-10-15T06:30:00.029Z,42.25
2022-10-15T06:32:28.347Z,46.20
2022-10-15T06:34:56.511Z,38.80
2022-10-15T06:37:24.741Z,40.15
2022-10-15T06:39:55.877Z,39.65
2022-10-15T06:42:24.012Z,36.78
2022-10-15T06:44:56.474Z,40.85
2022-10-15T06:47:24.839Z,44.70
2022-10-15T06:49:53.045Z,46.83
2022-10-15T06:52:21.611Z,39.30
2022-10-15T06:54:49.916Z,40.70
2022-10-15T06:57:23.184Z,40.50
2022-10-15T06:59:51.603Z,40.30
2022-10-15T07:02:19.886Z,52.65
2022-10-15T07:04:48.569Z,47.47
2022-10-15T07:07:21.314Z,46.38
2022-10-15T07:09:53.240Z,43.17
2022-10-15T07:12:22.794Z,51.83
2022-10-15T07:14:50.958Z,51.88
2022-10-15T07:17:18.925Z,44.47
2022-10-15T07:19:46.842Z,49.90
2022-10-15T07:22:14.612Z,48.70
2022-10-15T07:24:42.278Z,51.40
2022-10-15T07:27:18.642Z,45.10
2022-10-15T07:29:47.248Z,43.60
2022-10-15T07:32:15.156Z,50.08
2022-10-15T07:34:43.234Z,47.75
2022-10-15T07:37:10.929Z,48.05
2022-10-15T07:39:40.816Z,53.35
2022-10-15T07:42:09.478Z,49.08
2022-10-15T07:44:37.198Z,50.95
2022-10-15T07:47:11.045Z,52.15
2022-10-15T07:49:39.198Z,46.83
2022-10-15T07:52:08.991Z,47.50
2022-10-15T07:54:37.100Z,38.80
2022-10-15T07:57:07.221Z,44.72
2022-10-15T07:59:35.860Z,43.85
2022-10-15T08:02:03.565Z,39.35
2022-10-15T08:04:31.570Z,41.22
2022-10-15T08:07:01.905Z,46.30
2022-10-15T08:09:29.986Z,42.15
2022-10-15T08:11:57.949Z,36.13
2022-10-15T08:14:26.306Z,44.35
2022-10-15T08:16:54.057Z,38.55
2022-10-15T08:19:21.809Z,39.92
2022-10-15T08:21:49.930Z,40.97
2022-10-15T08:24:17.858Z,38.78
2022-10-15T08:26:46.502Z,39.08
2022-10-15T08:29:14.500Z,38.78
2022-10-15T08:31:42.547Z,43.33
2022-10-15T08:34:10.687Z,45.75
2022-10-15T08:36:38.349Z,41.45
2022-10-15T08:39:07.625Z,39.95
2022-10-15T08:42:04.127Z,37.45
2022-10-15T08:45:15.101Z,28.10
2022-10-15T08:47:48.909Z,29.58
2022-10-15T08:50:25.846Z,30.40
2022-10-15T08:52:56.352Z,36.22
2022-10-15T08:58:14.723Z,40.67
2022-10-15T09:00:59.246Z,21.50
2022-10-15T09:03:31.423Z,24.90
2022-10-15T09:06:15.999Z,17.45
2022-10-15T09:09:03.334Z,21.90
2022-10-15T09:11:46.935Z,25.27
2022-10-15T09:14:28.835Z,19.60
2022-10-15T09:16:57.519Z,22.13
2022-10-15T09:19:29.100Z,19.33
2022-10-15T09:21:58.069Z,18.45
2022-10-15T09:24:30.766Z,21.02
2022-10-15T09:27:27.682Z,20.58
2022-10-15T09:30:08.001Z,20.05
2022-10-15T09:32:54.539Z,18.67
2022-10-15T09:36:04.449Z,18.42
2022-10-15T09:39:08.140Z,19.83
2022-10-15T09:42:21.249Z,16.80
2022-10-15T09:44:49.991Z,18.85
2022-10-15T09:47:24.061Z,16.55
2022-10-15T09:49:56.419Z,16.52
2022-10-15T09:52:47.267Z,14.85
2022-10-15T09:55:21.203Z,16.90
2022-10-15T09:57:52.905Z,16.65
2022-10-15T10:00:20.937Z,13.57
2022-10-15T10:03:07.536Z,18.58
2022-10-15T10:05:37.556Z,20.60
2022-10-15T10:08:10.340Z,17.55
2022-10-15T10:10:41.771Z,15.77
2022-10-15T10:13:28.335Z,16.02
2022-10-15T10:16:02.015Z,17.52
2022-10-15T10:18:31.971Z,16.13
2022-10-15T10:21:06.302Z,18.10
2022-10-15T10:23:36.551Z,17.67
2022-10-15T10:28:44.318Z,14.75
2022-10-15T10:31:13.364Z,21.75
2022-10-15T10:33:45.507Z,17.13
2022-10-15T10:36:21.651Z,16.65
2022-10-15T10:39:04.866Z,17.13
2022-10-15T10:41:51.675Z,19.88
2022-10-15T10:44:34.810Z,17.80
2022-10-15T10:47:02.604Z,18.75
2022-10-15T10:49:36.873Z,15.50
2022-10-15T10:52:28.889Z,20.08
2022-10-15T10:55:01.715Z,17.02
2022-10-15T10:57:44.725Z,173.18
2022-10-15T11:00:39.998Z,16.20
2022-10-15T11:03:26.440Z,16.35
2022-10-15T11:06:25.918Z,13.57
2022-10-15T11:09:05.670Z,22.38
2022-10-15T11:11:59.214Z,15.00
2022-10-15T11:14:43.238Z,12.23
2022-10-15T11:17:17.376Z,15.05
2022-10-15T11:20:20.435Z,13.55
2022-10-15T11:22:59.719Z,13.52
2022-10-15T11:25:56.674Z,17.05
2022-10-15T11:28:43.415Z,12.77
2022-10-15T11:31:15.082Z,14.95
2022-10-15T11:34:08.925Z,21.75
2022-10-15T11:36:44.959Z,13.07
2022-10-15T11:39:34.489Z,12.43
2022-10-15T11:42:05.138Z,12.02
2022-10-15T11:44:42.171Z,14.88
2022-10-15T11:47:34.046Z,13.05
2022-10-15T11:50:10.625Z,14.65
2022-10-15T11:53:06.386Z,12.52
2022-10-15T11:56:00.767Z,78.35
2022-10-15T11:58:39.543Z,26.98
2022-10-15T12:01:15.635Z,14.27
2022-10-15T12:04:06.256Z,16.23
2022-10-15T12:06:37.725Z,13.18
2022-10-15T12:09:07.361Z,11.98
2022-10-15T12:12:08.448Z,14.38
2022-10-15T12:14:49.447Z,13.95
2022-10-15T12:17:52.244Z,14.32
2022-10-15T12:20:22.961Z,13.40
2022-10-15T12:22:57.617Z,15.30
2022-10-15T12:25:34.792Z,12.63
2022-10-15T12:28:22.084Z,13.25
2022-10-15T12:30:57.918Z,15.48
2022-10-15T12:33:29.739Z,16.35
2022-10-15T12:36:01.448Z,20.92
2022-10-15T12:38:41.871Z,27.02
2022-10-15T12:41:15.248Z,24.57
2022-10-15T12:43:54.439Z,19.20
2022-10-15T12:46:22.899Z,29.23
2022-10-15T12:48:54.731Z,22.17
2022-10-15T12:51:23.096Z,28.48
2022-10-15T12:53:53.192Z,31.08
2022-10-15T12:56:26.456Z,47.10
2022-10-15T12:58:58.580Z,15.65
2022-10-15T13:01:51.434Z,22.38
2022-10-15T13:04:20.646Z,16.67
2022-10-15T13:06:48.775Z,19.00
2022-10-15T13:09:29.427Z,18.13
2022-10-15T13:12:00.725Z,12.57
2022-10-15T13:14:36.350Z,17.35
2022-10-15T13:17:20.117Z,14.13
2022-10-15T13:20:01.323Z,15.95
2022-10-15T13:22:32.573Z,16.45
2022-10-15T13:25:01.155Z,15.40
2022-10-15T13:27:35.914Z,18.33
2022-10-15T13:30:10.494Z,21.70
2022-10-15T13:32:48.817Z,20.25
2022-10-15T13:35:22.176Z,17.33
2022-10-15T13:37:50.625Z,15.32
2022-10-15T13:40:23.988Z,16.10
2022-10-15T13:43:03.665Z,17.63
2022-10-15T13:45:31.996Z,16.00
2022-10-15T13:48:00.812Z,17.40
2022-10-15T13:50:39.583Z,17.02
2022-10-15T13:53:28.956Z,16.70
2022-10-15T13:56:00.151Z,15.43
2022-10-15T13:58:29.890Z,13.00
2022-10-15T14:01:17.415Z,16.05
2022-10-15T14:03:53.065Z,14.57
2022-10-15T14:06:27.939Z,16.75
2022-10-15T14:09:01.803Z,21.55
2022-10-15T14:11:30.939Z,20.15
2022-10-15T14:14:00.178Z,14.18
2022-10-15T14:16:42.896Z,14.15
2022-10-15T14:19:16.570Z,15.68
2022-10-15T14:21:48.181Z,14.40
2022-10-15T14:24:20.528Z,15.43
2022-10-15T14:26:49.873Z,13.80
2022-10-15T14:29:41.951Z,12.93
2022-10-15T14:32:52.021Z,14.60
2022-10-15T14:35:35.601Z,13.35
2022-10-15T14:38:09.400Z,15.95
2022-10-15T14:40:38.068Z,19.15
2022-10-15T14:43:33.296Z,16.80
2022-10-15T14:46:05.591Z,18.02
2022-10-15T14:48:37.122Z,18.00
2022-10-15T14:51:08.150Z,17.13
2022-10-15T14:53:40.187Z,17.48
2022-10-15T14:56:15.251Z,17.38
2022-10-15T14:58:52.624Z,17.60
2022-10-15T15:01:22.173Z,18.83
2022-10-15T15:03:52.681Z,18.90
2022-10-15T15:06:21.211Z,14.88
2022-10-15T15:08:49.852Z,17.50
2022-10-15T15:11:24.770Z,25.25
2022-10-15T15:13:53.547Z,22.13
2022-10-15T15:16:22.925Z,13.82
2022-10-15T15:18:51.147Z,14.88
2022-10-15T15:21:24.678Z,15.75
2022-10-15T15:23:53.291Z,17.48
2022-10-15T15:26:21.526Z,32.42
2022-10-15T15:28:49.742Z,16.15
2022-10-15T15:31:19.639Z,17.55
2022-10-15T15:33:48.810Z,15.95
2022-10-15T15:36:22.597Z,19.45
2022-10-15T15:38:52.090Z,17.48
2022-10-15T15:41:22.864Z,16.15
2022-10-15T15:43:51.715Z,20.50
2022-10-15T15:46:20.656Z,26.80
2022-10-15T15:48:48.504Z,19.52
2022-10-15T15:51:22.686Z,24.08
2022-10-15T15:53:51.534Z,18.58
2022-10-15T15:56:19.376Z,16.58
2022-10-15T15:58:49.399Z,17.77
2022-10-15T16:01:18.194Z,21.88
2022-10-15T16:03:47.894Z,18.00
2022-10-15T16:06:16.411Z,61.17
2022-10-15T16:08:44.419Z,25.05
2022-10-15T16:11:12.602Z,26.95
2022-10-15T16:13:43.630Z,28.50
2022-10-15T16:16:12.453Z,23.50
2022-10-15T16:18:40.897Z,24.35
2022-10-15T16:21:08.764Z,22.33
2022-10-15T16:23:36.656Z,22.70
2022-10-15T16:26:04.474Z,32.60
2022-10-15T16:28:32.743Z,66.07
2022-10-15T16:31:27.774Z,34.15
2022-10-15T16:33:59.016Z,21.63
2022-10-15T16:36:26.817Z,22.90
2022-10-15T16:38:54.965Z,24.38
2022-10-15T16:41:24.130Z,19.38
2022-10-15T16:43:52.780Z,25.05
2022-10-15T16:46:21.587Z,22.15
2022-10-15T16:48:56.820Z,18.20
2022-10-15T16:51:26.722Z,22.70
2022-10-15T16:53:58.095Z,20.55
2022-10-15T16:56:29.223Z,22.42
2022-10-15T16:58:58.115Z,17.02
2022-10-15T17:01:30.326Z,22.65
2022-10-15T17:03:59.964Z,23.60
2022-10-15T17:06:30.838Z,84.35
2022-10-15T17:09:05.609Z,56.08
2022-10-15T17:11:37.504Z,34.25
2022-10-15T17:14:08.457Z,24.80
2022-10-15T17:16:48.397Z,21.02
2022-10-15T17:19:19.028Z,21.55
2022-10-15T17:21:47.661Z,17.75
2022-10-15T17:24:18.204Z,23.67
2022-10-15T17:26:47.481Z,30.50
2022-10-15T17:29:20.904Z,25.95
2022-10-15T17:31:50.658Z,26.70
2022-10-15T17:34:18.929Z,24.25
2022-10-15T17:36:49.262Z,25.42
2022-10-15T17:39:20.196Z,20.33
2022-10-15T17:41:49.335Z,33.63
2022-10-15T17:44:17.634Z,33.05
2022-10-15T17:46:46.231Z,28.33
2022-10-15T17:49:18.637Z,27.67
2022-10-15T17:51:48.369Z,22.75
2022-10-15T17:54:16.594Z,30.27
2022-10-15T17:56:45.796Z,22.85
2022-10-15T17:59:16.992Z,25.90
2022-10-15T18:02:01.090Z,34.67
2022-10-15T18:04:31.361Z,38.45
2022-10-15T18:07:00.086Z,46.25
2022-10-15T18:09:28.624Z,25.40
2022-10-15T18:14:31.870Z,33.72
2022-10-15T18:17:00.421Z,40.22
2022-10-15T18:19:28.666Z,46.63
2022-10-15T18:21:57.754Z,27.17
2022-10-15T18:24:27.332Z,40.38
2022-10-15T18:26:56.313Z,40.50
2022-10-15T18:29:25.962Z,40.75
2022-10-15T18:31:57.704Z,34.28
2022-10-15T18:34:28.254Z,54.25
2022-10-15T18:36:56.792Z,48.15
2022-10-15T18:39:25.509Z,61.05
2022-10-15T18:41:54.246Z,58.15
2022-10-15T18:44:26.085Z,53.92
2022-10-15T18:46:54.779Z,26.88
2022-10-15T18:49:22.879Z,55.70
2022-10-15T18:51:53.287Z,60.17
2022-10-15T18:54:22.781Z,62.03
2022-10-15T18:56:53.259Z,58.97
2022-10-15T18:59:22.969Z,53.45
2022-10-15T19:01:53.357Z,63.03
2022-10-15T19:04:23.609Z,71.68
2022-10-15T19:06:54.216Z,64.38
2022-10-15T19:09:25.173Z,82.95
2022-10-15T19:11:55.521Z,94.45
2022-10-15T19:14:25.506Z,64.03
2022-10-15T19:16:54.644Z,62.20
2022-10-15T19:19:24.527Z,77.82
2022-10-15T19:21:56.281Z,78.00
2022-10-15T19:24:25.568Z,85.68
2022-10-15T19:26:53.776Z,79.78
2022-10-15T19:29:21.842Z,88.93
2022-10-15T19:31:54.420Z,84.70
2022-10-15T19:34:23.704Z,78.85
2022-10-15T19:36:51.617Z,78.25
2022-10-15T19:39:24.383Z,75.82
2022-10-15T19:41:53.485Z,67.95
2022-10-15T19:44:25.920Z,60.08
2022-10-15T19:46:55.772Z,36.45
2022-10-15T19:49:24.293Z,41.73
2022-10-15T19:51:52.794Z,44.38
2022-10-15T19:54:21.041Z,47.78
2022-10-15T19:56:49.033Z,35.63
2022-10-15T19:59:17.163Z,47.88
2022-10-15T20:01:45.349Z,48.92
2022-10-15T20:04:13.152Z,46.88
2022-10-15T20:06:40.963Z,31.70
2022-10-15T20:09:09.203Z,39.92
2022-10-15T20:11:38.617Z,44.92
2022-10-15T20:14:08.073Z,48.83
2022-10-15T20:16:36.156Z,34.55
2022-10-15T20:19:06.067Z,71.40
2022-10-15T20:21:34.302Z,66.82
2022-10-15T20:24:05.273Z,64.65
2022-10-15T20:26:33.823Z,59.40
2022-10-15T20:29:02.008Z,57.35
2022-10-15T20:31:33.220Z,58.38
2022-10-15T20:34:02.037Z,53.58
2022-10-15T20:36:34.333Z,41.13
2022-10-15T20:39:05.738Z,34.05
2022-10-15T20:41:33.736Z,35.83
2022-10-15T20:44:01.833Z,42.38
2022-10-15T20:46:37.354Z,40.08
2022-10-15T20:49:09.697Z,34.65
2022-10-15T20:51:40.608Z,36.70
2022-10-15T20:54:09.738Z,34.47
2022-10-15T20:56:38.358Z,34.53
2022-10-15T20:59:06.819Z,39.08
2022-10-15T21:01:35.599Z,34.42
2022-10-15T21:04:04.192Z,37.80
2022-10-15T21:06:32.520Z,27.95
2022-10-15T21:09:00.296Z,29.35
2022-10-15T21:11:28.147Z,18.05
2022-10-15T21:13:56.100Z,56.55
2022-10-15T21:16:27.398Z,58.17
2022-10-15T21:18:56.415Z,52.55
2022-10-15T21:21:24.177Z,53.35
2022-10-15T21:23:52.503Z,41.63
2022-10-15T21:26:20.995Z,44.08
2022-10-15T21:28:49.107Z,39.30
2022-10-15T21:31:17.825Z,40.08
2022-10-15T21:33:46.681Z,37.67
2022-10-15T21:36:15.981Z,43.10
2022-10-15T21:38:43.805Z,40.28
2022-10-15T21:41:11.735Z,36.03
2022-10-15T21:43:39.654Z,40.00
2022-10-15T21:46:13.336Z,39.25
2022-10-15T21:48:42.633Z,41.03
2022-10-15T21:51:12.908Z,27.13
2022-10-15T21:53:41.349Z,36.85
2022-10-15T21:56:09.984Z,40.05
2022-10-15T21:58:39.736Z,39.85
2022-10-15T22:01:14.601Z,41.90
2022-10-15T22:03:45.735Z,42.88
2022-10-15T22:06:14.265Z,45.55
2022-10-15T22:08:42.594Z,37.45
2022-10-15T22:11:13.612Z,41.28
2022-10-15T22:13:44.741Z,39.85
2022-10-15T22:16:14.013Z,36.95
2022-10-15T22:18:41.816Z,43.03
2022-10-15T22:21:12.662Z,42.70
2022-10-15T22:23:40.291Z,43.30
2022-10-15T22:26:08.237Z,43.05
2022-10-15T22:28:35.958Z,37.78
2022-10-15T22:31:05.863Z,41.63
2022-10-15T22:33:35.032Z,44.80
2022-10-15T22:36:07.763Z,46.90
2022-10-15T22:38:35.491Z,45.38
2022-10-15T22:41:04.897Z,48.10
2022-10-15T22:43:34.157Z,45.75
2022-10-15T22:46:02.184Z,46.25
2022-10-15T22:48:31.984Z,47.65
2022-10-15T22:51:00.424Z,45.42
2022-10-15T22:53:29.156Z,45.42
2022-10-15T22:56:00.535Z,48.25
2022-10-15T22:58:30.133Z,52.83
2022-10-15T23:01:07.404Z,46.37
2022-10-15T23:03:35.550Z,42.25
2022-10-15T23:06:03.650Z,58.85
2022-10-15T23:08:32.808Z,37.65
2022-10-15T23:11:13.207Z,48.95
2022-10-15T23:13:43.634Z,58.42
2022-10-15T23:18:38.943Z,64.55
2022-10-15T23:21:11.739Z,61.90
2022-10-15T23:23:39.673Z,44.22
2022-10-15T23:26:07.502Z,45.72
2022-10-15T23:28:35.242Z,47.15
2022-10-15T23:31:02.829Z,47.65
2022-10-15T23:33:30.656Z,41.08
2022-10-15T23:36:03.730Z,38.90
2022-10-15T23:38:31.527Z,42.08
2022-10-15T23:41:01.516Z,36.72
2022-10-15T23:43:29.982Z,42.17
2022-10-15T23:45:58.354Z,36.97
2022-10-15T23:48:26.507Z,38.97
2022-10-15T23:50:56.934Z,37.03
2022-10-15T23:53:27.931Z,37.92
2022-10-15T23:55:55.513Z,34.05
2022-10-15T23:58:23.478Z,42.35
